Stena Europe — VSTA3 — position and weather

sailwx.info

Track history (hours):
 
Tides and Currents Weather Stations Pressure Air Temp Water Temp Dewpoint Dewpoint Depression Visibility Wind Speed Wind Dir Waves Ship Positions

Stena Europe

Operator: Stena Line

Last reported at 2018-Jul-22 03:00 UTC. Time now 2018-Jul-22 03:22 UTC.
Position N 52°15' W 006°20'.

Length 149 m; draft 6 m.

Type: Passenger vessel. MMSI: 235004539.

Date/timePositionNaut miles runAvg speedWind from/ knotsBaromVisibWave heightAir tempDewpointWater temp
2018-Jul-22 03:00N 52°15' W 006°20'0 0.6
2018-Jul-22 02:30N 52°16' W 006°20'815.7
2018-Jul-22 02:00N 52°14' W 006°08'815.0
2018-Jul-22 01:30N 52°14' W 005°55'2 4.9
2018-Jul-22 01:00N 52°14' W 005°51'714.6
2018-Jul-22 00:30N 52°09' W 005°42'1715.1
2018-Jul-21 23:22N 52°05' W 005°15'24 4.5
2018-Jul-21 18:08N 52°11' W 005°52'217.9
2018-Jul-21 18:00N 52°11' W 005°56'917.6
2018-Jul-21 17:30N 52°13' W 006°10'713.5
2018-Jul-21 17:00N 52°15' W 006°20'0 0.0
2018-Jul-21 16:30N 52°15' W 006°20'0 0.0
2018-Jul-21 15:59N 52°15' W 006°20'0 0.1
2018-Jul-21 15:30N 52°15' W 006°20'510.8
2018-Jul-21 15:00N 52°14' W 006°12'917.8
2018-Jul-21 14:30N 52°11' W 005°58'1817.6
2018-Jul-21 13:28N 52°07' W 005°29'6 1.2
2018-Jul-21 08:44N 52°09' W 005°37'417.0
2018-Jul-21 08:30N 52°10' W 005°44'816.8
2018-Jul-21 08:00N 52°11' W 005°57'816.6
2018-Jul-21 07:31N 52°13' W 006°10'612.7
2018-Jul-21 07:00N 52°15' W 006°20'0 0.0
2018-Jul-21 06:30N 52°15' W 006°20'0 0.0
2018-Jul-21 06:00N 52°15' W 006°20'0 0.0
2018-Jul-21 05:30N 52°15' W 006°20'0 0.0
2018-Jul-21 05:00N 52°15' W 006°20'0 0.0
2018-Jul-21 04:30N 52°15' W 006°20'0 0.0
2018-Jul-21 04:00N 52°15' W 006°20'0 0.0
2018-Jul-21 03:30N 52°15' W 006°20'0 0.0
2018-Jul-21 03:00N 52°15' W 006°20'3 5.4
2018-Jul-21 02:30N 52°15' W 006°16'816.5
2018-Jul-21 02:00N 52°13' W 006°03'5 9.9
2018-Jul-21 01:31N 52°12' W 005°55'4 8.0
2018-Jul-21 01:00N 52°11' W 005°49'9 1.4
2018-Jul-20 18:43N 52°08' W 005°36'617.9
2018-Jul-20 18:22N 52°09' W 005°46'617.7
2018-Jul-20 18:00N 52°11' W 005°55'918.0
2018-Jul-20 17:30N 52°13' W 006°10'713.2
2018-Jul-20 17:00N 52°15' W 006°20'0 0.0
2018-Jul-20 16:30N 52°15' W 006°20'0 0.0
2018-Jul-20 16:00N 52°15' W 006°20'0 0.4
2018-Jul-20 15:30N 52°15' W 006°20'713.5
2018-Jul-20 15:00N 52°13' W 006°10'917.1
2018-Jul-20 14:30N 52°11' W 005°56'917.0
2018-Jul-20 14:00N 52°10' W 005°43'3 0.6
2018-Jul-20 08:32N 52°09' W 005°38'017.3
2018-Jul-20 08:30N 52°09' W 005°38'917.1
2018-Jul-20 08:00N 52°11' W 005°52'817.0
2018-Jul-20 07:30N 52°13' W 006°05'917.5
2018-Jul-20 07:00N 52°16' W 006°19'1 1.6
2018-Jul-20 06:30N 52°15' W 006°20'0 0.0
2018-Jul-20 05:59N 52°15' W 006°20'0 0.0
2018-Jul-20 05:30N 52°15' W 006°20'0 0.0
2018-Jul-20 05:00N 52°15' W 006°20'0 0.0
2018-Jul-20 04:30N 52°15' W 006°20'0 0.0
2018-Jul-20 04:00N 52°15' W 006°20'0 0.0
2018-Jul-20 03:30N 52°15' W 006°20'0 0.0
2018-Jul-20 03:00N 52°15' W 006°20'5 9.4
2018-Jul-20 02:30N 52°14' W 006°13'715.0
2018-Jul-20 02:00N 52°14' W 006°01'612.1
2018-Jul-20 01:30N 52°13' W 005°51'713.9
2018-Jul-20 01:00N 52°09' W 005°41'816.8
2018-Jul-20 00:30N 52°08' W 005°28'816.6
2018-Jul-20 00:00N 52°05' W 005°15'11 3.5
2018-Jul-19 20:44N 52°01' W 004°58'416.5
2018-Jul-19 20:30N 52°03' W 005°03'916.4
2018-Jul-19 19:59N 52°05' W 005°16'817.2
2018-Jul-19 19:30N 52°07' W 005°30'917.5
2018-Jul-19 19:00N 52°09' W 005°43'917.4
2018-Jul-19 18:30N 52°10' W 005°58'917.8
2018-Jul-19 18:00N 52°14' W 006°11'612.4
2018-Jul-19 17:30N 52°15' W 006°20'0 0.0
2018-Jul-19 17:00N 52°15' W 006°20'0 0.0
2018-Jul-19 16:30N 52°15' W 006°20'0 0.0
2018-Jul-19 16:00N 52°15' W 006°20'2 4.4
2018-Jul-19 15:30N 52°15' W 006°17'917.4
2018-Jul-19 15:00N 52°13' W 006°03'1717.3
2018-Jul-19 14:00N 52°08' W 005°36'1216.7
2018-Jul-19 13:16N 52°05' W 005°16'416.0
2018-Jul-19 13:00N 52°04' W 005°10'19 4.3
2018-Jul-19 08:32N 52°09' W 005°40'117.2
2018-Jul-19 08:30N 52°09' W 005°41'815.8
2018-Jul-19 08:00N 52°11' W 005°53'816.3
2018-Jul-19 07:30N 52°13' W 006°06'917.0
2018-Jul-19 07:00N 52°16' W 006°19'1 1.2
2018-Jul-19 06:30N 52°15' W 006°20'0 0.0
2018-Jul-19 06:00N 52°15' W 006°20'0 0.0
2018-Jul-19 05:30N 52°15' W 006°20'0 0.0
2018-Jul-19 05:00N 52°15' W 006°20'0 0.0
2018-Jul-19 04:30N 52°15' W 006°20'0 0.0
2018-Jul-19 04:00N 52°15' W 006°20'0 0.0
2018-Jul-19 03:30N 52°15' W 006°20'0 0.0
2018-Jul-19 03:00N 52°15' W 006°20'3 6.4
2018-Jul-19 02:30N 52°14' W 006°15'816.2
2018-Jul-19 02:00N 52°12' W 006°02'714.2
2018-Jul-19 01:30N 52°11' W 005°51'714.1
2018-Jul-19 01:00N 52°09' W 005°40'713.9
2018-Jul-19 00:29N 52°07' W 005°29'6 1.0
2018-Jul-18 18:43N 52°09' W 005°38'417.0
2018-Jul-18 18:30N 52°10' W 005°44'917.1
2018-Jul-18 18:00N 52°12' W 005°57'917.1
2018-Jul-18 17:30N 52°14' W 006°11'612.2
2018-Jul-18 17:00N 52°15' W 006°20'0 0.0
2018-Jul-18 16:30N 52°15' W 006°20'0 0.0
2018-Jul-18 16:00N 52°15' W 006°20'0 0.4
2018-Jul-18 15:30N 52°15' W 006°20'713.7
2018-Jul-18 15:00N 52°14' W 006°10'817.0
2018-Jul-18 14:30N 52°12' W 005°56'1716.9
2018-Jul-18 13:30N 52°07' W 005°30'8 1.7
2018-Jul-18 08:24N 52°10' W 005°43'616.0
2018-Jul-18 08:00N 52°11' W 005°53'816.3
2018-Jul-18 07:30N 52°13' W 006°06'917.0
2018-Jul-18 07:00N 52°16' W 006°19'1 2.0
2018-Jul-18 06:30N 52°15' W 006°20'0 0.0
2018-Jul-18 06:00N 52°15' W 006°20'0 0.0
2018-Jul-18 05:30N 52°15' W 006°20'0 0.0
2018-Jul-18 05:00N 52°15' W 006°20'0 0.0
2018-Jul-18 04:30N 52°15' W 006°20'0 0.0
2018-Jul-18 04:00N 52°15' W 006°20'0 0.0
2018-Jul-18 03:30N 52°15' W 006°20'0 0.0
2018-Jul-18 03:00N 52°15' W 006°20'5 9.2
2018-Jul-18 02:30N 52°14' W 006°13'714.4
2018-Jul-18 02:00N 52°12' W 006°01'714.3
2018-Jul-18 01:30N 52°11' W 005°50'916.6
2018-Jul-18 00:57N 52°09' W 005°36'3 0.6
2018-Jul-17 19:22N 52°09' W 005°41'616.9
2018-Jul-17 19:00N 52°11' W 005°51'816.9
2018-Jul-17 18:30N 52°13' W 006°04'917.2
2018-Jul-17 18:00N 52°15' W 006°17'2 3.5
2018-Jul-17 17:30N 52°15' W 006°20'0 0.0
2018-Jul-17 17:00N 52°15' W 006°20'0 0.0
2018-Jul-17 16:30N 52°15' W 006°20'0 0.3
2018-Jul-17 16:00N 52°15' W 006°20'713.8
2018-Jul-17 15:30N 52°13' W 006°10'917.6
2018-Jul-17 15:00N 52°11' W 005°56'917.7
2018-Jul-17 14:30N 52°09' W 005°41'4 0.6
2018-Jul-17 08:21N 52°10' W 005°47'617.2
2018-Jul-17 07:59N 52°11' W 005°57'817.5
2018-Jul-17 07:30N 52°14' W 006°11'612.4
2018-Jul-17 07:00N 52°15' W 006°20'0 0.0
2018-Jul-17 06:30N 52°15' W 006°20'0 0.0
2018-Jul-17 05:56N 52°15' W 006°20'0 0.0
2018-Jul-17 05:30N 52°15' W 006°20'0 0.0
2018-Jul-17 05:00N 52°15' W 006°20'0 0.0
2018-Jul-17 04:30N 52°15' W 006°20'0 0.0
2018-Jul-17 04:00N 52°15' W 006°20'0 0.0
2018-Jul-17 03:30N 52°15' W 006°20'0 0.1
2018-Jul-17 03:00N 52°15' W 006°20'5 9.2
2018-Jul-17 02:30N 52°14' W 006°13'714.6
2018-Jul-17 02:00N 52°12' W 006°01'714.5
2018-Jul-17 01:30N 52°11' W 005°50'4 7.3
2018-Jul-17 01:00N 52°11' W 005°44'5 0.8
2018-Jul-16 19:03N 52°09' W 005°37'417.1
2018-Jul-16 18:48N 52°10' W 005°44'516.9
2018-Jul-16 18:30N 52°11' W 005°52'816.8
2018-Jul-16 18:00N 52°13' W 006°06'917.0
2018-Jul-16 17:30N 52°16' W 006°19'1 1.6
2018-Jul-16 17:00N 52°15' W 006°20'0 0.0
2018-Jul-16 16:30N 52°15' W 006°20'0 0.0
2018-Jul-16 16:00N 52°15' W 006°20'0 0.3
2018-Jul-16 15:30N 52°15' W 006°20'612.3
2018-Jul-16 15:00N 52°13' W 006°11'917.6
2018-Jul-16 14:30N 52°11' W 005°57'917.7
2018-Jul-16 14:00N 52°09' W 005°43'5 0.9
2018-Jul-16 08:43N 52°08' W 005°36'417.5
2018-Jul-16 08:30N 52°09' W 005°42'917.4
2018-Jul-16 07:59N 52°11' W 005°56'817.5
2018-Jul-16 07:30N 52°13' W 006°09'714.6
2018-Jul-16 07:00N 52°15' W 006°20'0 0.3
2018-Jul-16 06:30N 52°15' W 006°20'0 0.0
2018-Jul-16 06:00N 52°15' W 006°20'0 0.0
2018-Jul-16 05:30N 52°15' W 006°20'0 0.0
2018-Jul-16 05:00N 52°15' W 006°20'0 0.0
2018-Jul-16 04:30N 52°15' W 006°20'0 0.0
2018-Jul-16 04:00N 52°15' W 006°20'0 0.0
2018-Jul-16 03:30N 52°15' W 006°20'0 0.0
2018-Jul-16 03:00N 52°15' W 006°20'1 2.2
2018-Jul-16 02:30N 52°16' W 006°19'815.6
2018-Jul-16 02:00N 52°12' W 006°07'714.6
2018-Jul-16 01:30N 52°10' W 005°55'714.2
2018-Jul-16 01:00N 52°09' W 005°44'0 0.1
2018-Jul-15 18:37N 52°09' W 005°45'216.7
2018-Jul-15 18:30N 52°09' W 005°48'1016.7
2018-Jul-15 17:56N 52°12' W 006°03'717.3
2018-Jul-15 17:30N 52°14' W 006°15'4 7.3
2018-Jul-15 17:00N 52°15' W 006°20'0 0.0
2018-Jul-15 16:30N 52°15' W 006°20'0 0.0
2018-Jul-15 16:00N 52°15' W 006°20'3 6.5
2018-Jul-15 15:31N 52°14' W 006°15'917.6
2018-Jul-15 15:00N 52°12' W 006°01'918.1
2018-Jul-15 14:30N 52°10' W 005°47'8 1.7
2018-Jul-15 09:40N 52°08' W 005°34'317.6
2018-Jul-15 09:29N 52°08' W 005°39'817.3
2018-Jul-15 09:00N 52°11' W 005°52'816.9
2018-Jul-15 08:31N 52°13' W 006°05'816.7
2018-Jul-15 08:01N 52°15' W 006°18'1 2.6
2018-Jul-15 07:30N 52°15' W 006°20'0 0.0
2018-Jul-15 07:00N 52°15' W 006°20'0 0.0
2018-Jul-15 06:30N 52°15' W 006°20'0 0.0
2018-Jul-15 06:00N 52°15' W 006°20'0 0.0
2018-Jul-15 05:31N 52°15' W 006°20'0 0.0
2018-Jul-15 05:01N 52°15' W 006°20'0 0.0
2018-Jul-15 04:30N 52°15' W 006°20'0 0.0
2018-Jul-15 04:00N 52°15' W 006°20'0 0.0
2018-Jul-15 03:30N 52°15' W 006°20'0 0.0
2018-Jul-15 03:00N 52°15' W 006°20'4 7.9
2018-Jul-15 02:30N 52°14' W 006°14'715.0
2018-Jul-15 02:00N 52°13' W 006°02'815.0
2018-Jul-15 01:30N 52°11' W 005°50'714.5
2018-Jul-15 01:00N 52°09' W 005°39'10 1.4
2018-Jul-14 18:11N 52°11' W 005°54'417.3
2018-Jul-14 17:59N 52°12' W 005°60'817.8
2018-Jul-14 17:30N 52°14' W 006°13'4 8.9
2018-Jul-14 17:00N 52°15' W 006°20'0 0.0
2018-Jul-14 16:30N 52°15' W 006°20'0 0.0
2018-Jul-14 16:00N 52°15' W 006°20'0 0.1
2018-Jul-14 15:30N 52°15' W 006°20'510.3
2018-Jul-14 15:01N 52°14' W 006°12'917.7
2018-Jul-14 14:30N 52°11' W 005°58'10 1.8
2018-Jul-14 08:41N 52°09' W 005°42'317.1
2018-Jul-14 08:30N 52°10' W 005°46'917.1
2018-Jul-14 08:00N 52°12' W 005°60'917.6
2018-Jul-14 07:30N 52°14' W 006°14'4 8.0
2018-Jul-14 07:00N 52°15' W 006°20'0 0.0
2018-Jul-14 06:30N 52°15' W 006°20'0 0.0
2018-Jul-14 06:00N 52°15' W 006°20'0 0.0
2018-Jul-14 05:30N 52°15' W 006°20'0 0.0
2018-Jul-14 05:00N 52°15' W 006°20'0 0.0
2018-Jul-14 04:30N 52°15' W 006°20'0 0.0
2018-Jul-14 04:00N 52°15' W 006°20'0 0.0
2018-Jul-14 03:30N 52°15' W 006°20'0 0.1
2018-Jul-14 03:00N 52°15' W 006°20'510.5
2018-Jul-14 02:30N 52°14' W 006°12'714.7
2018-Jul-14 02:00N 52°12' W 006°00'714.1
2018-Jul-14 01:31N 52°10' W 005°49'16 2.5
2018-Jul-13 19:14N 52°07' W 005°24'617.7
2018-Jul-13 18:53N 52°09' W 005°34'1117.5
2018-Jul-13 18:14N 52°11' W 005°52'417.3
2018-Jul-13 18:00N 52°12' W 005°58'917.7
2018-Jul-13 17:30N 52°14' W 006°12'510.0
2018-Jul-13 17:00N 52°15' W 006°20'0 0.0
2018-Jul-13 16:30N 52°15' W 006°20'0 0.0
2018-Jul-13 16:00N 52°15' W 006°20'0 0.1
2018-Jul-13 15:30N 52°15' W 006°20'611.3
2018-Jul-13 15:00N 52°14' W 006°11'917.8
2018-Jul-13 14:30N 52°11' W 005°57'19 3.4
2018-Jul-13 08:51N 52°07' W 005°27'718.1
2018-Jul-13 08:29N 52°09' W 005°38'817.4
2018-Jul-13 08:00N 52°11' W 005°51'917.3
2018-Jul-13 07:30N 52°13' W 006°04'917.3
2018-Jul-13 07:00N 52°15' W 006°18'1 2.7
2018-Jul-13 06:30N 52°15' W 006°20'0 0.0
2018-Jul-13 06:00N 52°15' W 006°20'0 0.0
2018-Jul-13 05:30N 52°15' W 006°20'0 0.0
2018-Jul-13 05:00N 52°15' W 006°20'0 0.0
2018-Jul-13 04:30N 52°15' W 006°20'0 0.0
2018-Jul-13 04:00N 52°15' W 006°20'0 0.0
2018-Jul-13 03:30N 52°15' W 006°20'0 0.0
2018-Jul-13 03:00N 52°15' W 006°20'4 8.9
2018-Jul-13 02:30N 52°14' W 006°13'816.6
2018-Jul-13 02:00N 52°12' W 006°00'816.5
2018-Jul-13 01:30N 52°10' W 005°47'6 0.9
2018-Jul-12 18:59N 52°09' W 005°37'917.1
2018-Jul-12 18:29N 52°11' W 005°51'917.2
2018-Jul-12 17:57N 52°13' W 006°06'817.1
2018-Jul-12 17:30N 52°15' W 006°18'2 3.3
2018-Jul-12 17:00N 52°15' W 006°20'0 0.0
2018-Jul-12 16:30N 52°15' W 006°20'0 0.0
2018-Jul-12 16:00N 52°15' W 006°20'0 0.4
2018-Jul-12 15:30N 52°15' W 006°20'815.6
2018-Jul-12 15:00N 52°13' W 006°08'917.7
2018-Jul-12 14:30N 52°11' W 005°54'1017.7
2018-Jul-12 13:57N 52°09' W 005°38'5 0.9
2018-Jul-12 08:24N 52°10' W 005°46'616.5
2018-Jul-12 08:00N 52°12' W 005°56'816.9
2018-Jul-12 07:30N 52°14' W 006°09'713.5
2018-Jul-12 07:00N 52°15' W 006°20'0 0.0
2018-Jul-12 06:30N 52°15' W 006°20'0 0.0
2018-Jul-12 06:00N 52°15' W 006°20'0 0.0
2018-Jul-12 05:31N 52°15' W 006°20'0 0.0
2018-Jul-12 05:00N 52°15' W 006°20'0 0.0
2018-Jul-12 04:30N 52°15' W 006°20'0 0.0
2018-Jul-12 04:00N 52°15' W 006°20'0 0.0
2018-Jul-12 03:29N 52°15' W 006°20'0 0.0
2018-Jul-12 03:01N 52°15' W 006°20'  
Track history (hours):
 
Tides and Currents Weather Stations Pressure Air Temp Water Temp Dewpoint Dewpoint Depression Visibility Wind Speed Wind Dir Waves Ship Positions

Stena Europe

Operator: Stena Line

Last reported at 2018-Jul-22 03:00 UTC. Time now 2018-Jul-22 03:22 UTC.
Position N 52°15' W 006°20'.

Length 149 m; draft 6 m.

Type: Passenger vessel. MMSI: 235004539.

Date/timePositionNaut miles runAvg speedWind from/ knotsBaromVisibWave heightAir tempDewpointWater temp
2018-Jul-22 03:00N 52°15' W 006°20'0 0.6
2018-Jul-22 02:30N 52°16' W 006°20'815.7
2018-Jul-22 02:00N 52°14' W 006°08'815.0
2018-Jul-22 01:30N 52°14' W 005°55'2 4.9
2018-Jul-22 01:00N 52°14' W 005°51'714.6
2018-Jul-22 00:30N 52°09' W 005°42'1715.1
2018-Jul-21 23:22N 52°05' W 005°15'24 4.5
2018-Jul-21 18:08N 52°11' W 005°52'217.9
2018-Jul-21 18:00N 52°11' W 005°56'917.6
2018-Jul-21 17:30N 52°13' W 006°10'713.5
2018-Jul-21 17:00N 52°15' W 006°20'0 0.0
2018-Jul-21 16:30N 52°15' W 006°20'0 0.0
2018-Jul-21 15:59N 52°15' W 006°20'0 0.1
2018-Jul-21 15:30N 52°15' W 006°20'510.8
2018-Jul-21 15:00N 52°14' W 006°12'917.8
2018-Jul-21 14:30N 52°11' W 005°58'1817.6
2018-Jul-21 13:28N 52°07' W 005°29'6 1.2
2018-Jul-21 08:44N 52°09' W 005°37'417.0
2018-Jul-21 08:30N 52°10' W 005°44'816.8
2018-Jul-21 08:00N 52°11' W 005°57'816.6
2018-Jul-21 07:31N 52°13' W 006°10'612.7
2018-Jul-21 07:00N 52°15' W 006°20'0 0.0
2018-Jul-21 06:30N 52°15' W 006°20'0 0.0
2018-Jul-21 06:00N 52°15' W 006°20'0 0.0
2018-Jul-21 05:30N 52°15' W 006°20'0 0.0
2018-Jul-21 05:00N 52°15' W 006°20'0 0.0
2018-Jul-21 04:30N 52°15' W 006°20'0 0.0
2018-Jul-21 04:00N 52°15' W 006°20'0 0.0
2018-Jul-21 03:30N 52°15' W 006°20'0 0.0
2018-Jul-21 03:00N 52°15' W 006°20'3 5.4
2018-Jul-21 02:30N 52°15' W 006°16'816.5
2018-Jul-21 02:00N 52°13' W 006°03'5 9.9
2018-Jul-21 01:31N 52°12' W 005°55'4 8.0
2018-Jul-21 01:00N 52°11' W 005°49'9 1.4
2018-Jul-20 18:43N 52°08' W 005°36'617.9
2018-Jul-20 18:22N 52°09' W 005°46'617.7
2018-Jul-20 18:00N 52°11' W 005°55'918.0
2018-Jul-20 17:30N 52°13' W 006°10'713.2
2018-Jul-20 17:00N 52°15' W 006°20'0 0.0
2018-Jul-20 16:30N 52°15' W 006°20'0 0.0
2018-Jul-20 16:00N 52°15' W 006°20'0 0.4
2018-Jul-20 15:30N 52°15' W 006°20'713.5
2018-Jul-20 15:00N 52°13' W 006°10'917.1
2018-Jul-20 14:30N 52°11' W 005°56'917.0
2018-Jul-20 14:00N 52°10' W 005°43'3 0.6
2018-Jul-20 08:32N 52°09' W 005°38'017.3
2018-Jul-20 08:30N 52°09' W 005°38'917.1
2018-Jul-20 08:00N 52°11' W 005°52'817.0
2018-Jul-20 07:30N 52°13' W 006°05'917.5
2018-Jul-20 07:00N 52°16' W 006°19'1 1.6
2018-Jul-20 06:30N 52°15' W 006°20'0 0.0
2018-Jul-20 05:59N 52°15' W 006°20'0 0.0
2018-Jul-20 05:30N 52°15' W 006°20'0 0.0
2018-Jul-20 05:00N 52°15' W 006°20'0 0.0
2018-Jul-20 04:30N 52°15' W 006°20'0 0.0
2018-Jul-20 04:00N 52°15' W 006°20'0 0.0
2018-Jul-20 03:30N 52°15' W 006°20'0 0.0
2018-Jul-20 03:00N 52°15' W 006°20'5 9.4
2018-Jul-20 02:30N 52°14' W 006°13'715.0
2018-Jul-20 02:00N 52°14' W 006°01'612.1
2018-Jul-20 01:30N 52°13' W 005°51'713.9
2018-Jul-20 01:00N 52°09' W 005°41'816.8
2018-Jul-20 00:30N 52°08' W 005°28'816.6
2018-Jul-20 00:00N 52°05' W 005°15'11 3.5
2018-Jul-19 20:44N 52°01' W 004°58'416.5
2018-Jul-19 20:30N 52°03' W 005°03'916.4
2018-Jul-19 19:59N 52°05' W 005°16'817.2
2018-Jul-19 19:30N 52°07' W 005°30'917.5
2018-Jul-19 19:00N 52°09' W 005°43'917.4
2018-Jul-19 18:30N 52°10' W 005°58'917.8
2018-Jul-19 18:00N 52°14' W 006°11'612.4
2018-Jul-19 17:30N 52°15' W 006°20'0 0.0
2018-Jul-19 17:00N 52°15' W 006°20'0 0.0
2018-Jul-19 16:30N 52°15' W 006°20'0 0.0
2018-Jul-19 16:00N 52°15' W 006°20'2 4.4
2018-Jul-19 15:30N 52°15' W 006°17'917.4
2018-Jul-19 15:00N 52°13' W 006°03'1717.3
2018-Jul-19 14:00N 52°08' W 005°36'1216.7
2018-Jul-19 13:16N 52°05' W 005°16'416.0
2018-Jul-19 13:00N 52°04' W 005°10'19 4.3
2018-Jul-19 08:32N 52°09' W 005°40'117.2
2018-Jul-19 08:30N 52°09' W 005°41'815.8
2018-Jul-19 08:00N 52°11' W 005°53'816.3
2018-Jul-19 07:30N 52°13' W 006°06'917.0
2018-Jul-19 07:00N 52°16' W 006°19'1 1.2
2018-Jul-19 06:30N 52°15' W 006°20'0 0.0
2018-Jul-19 06:00N 52°15' W 006°20'0 0.0
2018-Jul-19 05:30N 52°15' W 006°20'0 0.0
2018-Jul-19 05:00N 52°15' W 006°20'0 0.0
2018-Jul-19 04:30N 52°15' W 006°20'0 0.0
2018-Jul-19 04:00N 52°15' W 006°20'0 0.0
2018-Jul-19 03:30N 52°15' W 006°20'0 0.0
2018-Jul-19 03:00N 52°15' W 006°20'3 6.4
2018-Jul-19 02:30N 52°14' W 006°15'816.2
2018-Jul-19 02:00N 52°12' W 006°02'714.2
2018-Jul-19 01:30N 52°11' W 005°51'714.1
2018-Jul-19 01:00N 52°09' W 005°40'713.9
2018-Jul-19 00:29N 52°07' W 005°29'6 1.0
2018-Jul-18 18:43N 52°09' W 005°38'417.0
2018-Jul-18 18:30N 52°10' W 005°44'917.1
2018-Jul-18 18:00N 52°12' W 005°57'917.1
2018-Jul-18 17:30N 52°14' W 006°11'612.2
2018-Jul-18 17:00N 52°15' W 006°20'0 0.0
2018-Jul-18 16:30N 52°15' W 006°20'0 0.0
2018-Jul-18 16:00N 52°15' W 006°20'0 0.4
2018-Jul-18 15:30N 52°15' W 006°20'713.7
2018-Jul-18 15:00N 52°14' W 006°10'817.0
2018-Jul-18 14:30N 52°12' W 005°56'1716.9
2018-Jul-18 13:30N 52°07' W 005°30'8 1.7
2018-Jul-18 08:24N 52°10' W 005°43'616.0
2018-Jul-18 08:00N 52°11' W 005°53'816.3
2018-Jul-18 07:30N 52°13' W 006°06'917.0
2018-Jul-18 07:00N 52°16' W 006°19'1 2.0
2018-Jul-18 06:30N 52°15' W 006°20'0 0.0
2018-Jul-18 06:00N 52°15' W 006°20'0 0.0
2018-Jul-18 05:30N 52°15' W 006°20'0 0.0
2018-Jul-18 05:00N 52°15' W 006°20'0 0.0
2018-Jul-18 04:30N 52°15' W 006°20'0 0.0
2018-Jul-18 04:00N 52°15' W 006°20'0 0.0
2018-Jul-18 03:30N 52°15' W 006°20'0 0.0
2018-Jul-18 03:00N 52°15' W 006°20'5 9.2
2018-Jul-18 02:30N 52°14' W 006°13'714.4
2018-Jul-18 02:00N 52°12' W 006°01'714.3
2018-Jul-18 01:30N 52°11' W 005°50'916.6
2018-Jul-18 00:57N 52°09' W 005°36'3 0.6
2018-Jul-17 19:22N 52°09' W 005°41'616.9
2018-Jul-17 19:00N 52°11' W 005°51'816.9
2018-Jul-17 18:30N 52°13' W 006°04'917.2
2018-Jul-17 18:00N 52°15' W 006°17'2 3.5
2018-Jul-17 17:30N 52°15' W 006°20'0 0.0
2018-Jul-17 17:00N 52°15' W 006°20'0 0.0
2018-Jul-17 16:30N 52°15' W 006°20'0 0.3
2018-Jul-17 16:00N 52°15' W 006°20'713.8
2018-Jul-17 15:30N 52°13' W 006°10'917.6
2018-Jul-17 15:00N 52°11' W 005°56'917.7
2018-Jul-17 14:30N 52°09' W 005°41'4 0.6
2018-Jul-17 08:21N 52°10' W 005°47'617.2
2018-Jul-17 07:59N 52°11' W 005°57'817.5
2018-Jul-17 07:30N 52°14' W 006°11'612.4
2018-Jul-17 07:00N 52°15' W 006°20'0 0.0
2018-Jul-17 06:30N 52°15' W 006°20'0 0.0
2018-Jul-17 05:56N 52°15' W 006°20'0 0.0
2018-Jul-17 05:30N 52°15' W 006°20'0 0.0
2018-Jul-17 05:00N 52°15' W 006°20'0 0.0
2018-Jul-17 04:30N 52°15' W 006°20'0 0.0
2018-Jul-17 04:00N 52°15' W 006°20'0 0.0
2018-Jul-17 03:30N 52°15' W 006°20'0 0.1
2018-Jul-17 03:00N 52°15' W 006°20'5 9.2
2018-Jul-17 02:30N 52°14' W 006°13'714.6
2018-Jul-17 02:00N 52°12' W 006°01'714.5
2018-Jul-17 01:30N 52°11' W 005°50'4 7.3
2018-Jul-17 01:00N 52°11' W 005°44'5 0.8
2018-Jul-16 19:03N 52°09' W 005°37'417.1
2018-Jul-16 18:48N 52°10' W 005°44'516.9
2018-Jul-16 18:30N 52°11' W 005°52'816.8
2018-Jul-16 18:00N 52°13' W 006°06'917.0
2018-Jul-16 17:30N 52°16' W 006°19'1 1.6
2018-Jul-16 17:00N 52°15' W 006°20'0 0.0
2018-Jul-16 16:30N 52°15' W 006°20'0 0.0
2018-Jul-16 16:00N 52°15' W 006°20'0 0.3
2018-Jul-16 15:30N 52°15' W 006°20'612.3
2018-Jul-16 15:00N 52°13' W 006°11'917.6
2018-Jul-16 14:30N 52°11' W 005°57'917.7
2018-Jul-16 14:00N 52°09' W 005°43'5 0.9
2018-Jul-16 08:43N 52°08' W 005°36'417.5
2018-Jul-16 08:30N 52°09' W 005°42'917.4
2018-Jul-16 07:59N 52°11' W 005°56'817.5
2018-Jul-16 07:30N 52°13' W 006°09'714.6
2018-Jul-16 07:00N 52°15' W 006°20'0 0.3
2018-Jul-16 06:30N 52°15' W 006°20'0 0.0
2018-Jul-16 06:00N 52°15' W 006°20'0 0.0
2018-Jul-16 05:30N 52°15' W 006°20'0 0.0
2018-Jul-16 05:00N 52°15' W 006°20'0 0.0
2018-Jul-16 04:30N 52°15' W 006°20'0 0.0
2018-Jul-16 04:00N 52°15' W 006°20'0 0.0
2018-Jul-16 03:30N 52°15' W 006°20'0 0.0
2018-Jul-16 03:00N 52°15' W 006°20'1 2.2
2018-Jul-16 02:30N 52°16' W 006°19'815.6
2018-Jul-16 02:00N 52°12' W 006°07'714.6
2018-Jul-16 01:30N 52°10' W 005°55'714.2
2018-Jul-16 01:00N 52°09' W 005°44'0 0.1
2018-Jul-15 18:37N 52°09' W 005°45'216.7
2018-Jul-15 18:30N 52°09' W 005°48'1016.7
2018-Jul-15 17:56N 52°12' W 006°03'717.3
2018-Jul-15 17:30N 52°14' W 006°15'4 7.3
2018-Jul-15 17:00N 52°15' W 006°20'0 0.0
2018-Jul-15 16:30N 52°15' W 006°20'0 0.0
2018-Jul-15 16:00N 52°15' W 006°20'3 6.5
2018-Jul-15 15:31N 52°14' W 006°15'917.6
2018-Jul-15 15:00N 52°12' W 006°01'918.1
2018-Jul-15 14:30N 52°10' W 005°47'8 1.7
2018-Jul-15 09:40N 52°08' W 005°34'317.6
2018-Jul-15 09:29N 52°08' W 005°39'817.3
2018-Jul-15 09:00N 52°11' W 005°52'816.9
2018-Jul-15 08:31N 52°13' W 006°05'816.7
2018-Jul-15 08:01N 52°15' W 006°18'1 2.6
2018-Jul-15 07:30N 52°15' W 006°20'0 0.0
2018-Jul-15 07:00N 52°15' W 006°20'0 0.0
2018-Jul-15 06:30N 52°15' W 006°20'0 0.0
2018-Jul-15 06:00N 52°15' W 006°20'0 0.0
2018-Jul-15 05:31N 52°15' W 006°20'0 0.0
2018-Jul-15 05:01N 52°15' W 006°20'0 0.0
2018-Jul-15 04:30N 52°15' W 006°20'0 0.0
2018-Jul-15 04:00N 52°15' W 006°20'0 0.0
2018-Jul-15 03:30N 52°15' W 006°20'0 0.0
2018-Jul-15 03:00N 52°15' W 006°20'4 7.9
2018-Jul-15 02:30N 52°14' W 006°14'715.0
2018-Jul-15 02:00N 52°13' W 006°02'815.0
2018-Jul-15 01:30N 52°11' W 005°50'714.5
2018-Jul-15 01:00N 52°09' W 005°39'10 1.4
2018-Jul-14 18:11N 52°11' W 005°54'417.3
2018-Jul-14 17:59N 52°12' W 005°60'817.8
2018-Jul-14 17:30N 52°14' W 006°13'4 8.9
2018-Jul-14 17:00N 52°15' W 006°20'0 0.0
2018-Jul-14 16:30N 52°15' W 006°20'0 0.0
2018-Jul-14 16:00N 52°15' W 006°20'0 0.1
2018-Jul-14 15:30N 52°15' W 006°20'510.3
2018-Jul-14 15:01N 52°14' W 006°12'917.7
2018-Jul-14 14:30N 52°11' W 005°58'10 1.8
2018-Jul-14 08:41N 52°09' W 005°42'317.1
2018-Jul-14 08:30N 52°10' W 005°46'917.1
2018-Jul-14 08:00N 52°12' W 005°60'917.6
2018-Jul-14 07:30N 52°14' W 006°14'4 8.0
2018-Jul-14 07:00N 52°15' W 006°20'0 0.0
2018-Jul-14 06:30N 52°15' W 006°20'0 0.0
2018-Jul-14 06:00N 52°15' W 006°20'0 0.0
2018-Jul-14 05:30N 52°15' W 006°20'0 0.0
2018-Jul-14 05:00N 52°15' W 006°20'0 0.0
2018-Jul-14 04:30N 52°15' W 006°20'0 0.0
2018-Jul-14 04:00N 52°15' W 006°20'0 0.0
2018-Jul-14 03:30N 52°15' W 006°20'0 0.1
2018-Jul-14 03:00N 52°15' W 006°20'510.5
2018-Jul-14 02:30N 52°14' W 006°12'714.7
2018-Jul-14 02:00N 52°12' W 006°00'714.1
2018-Jul-14 01:31N 52°10' W 005°49'16 2.5
2018-Jul-13 19:14N 52°07' W 005°24'617.7
2018-Jul-13 18:53N 52°09' W 005°34'1117.5
2018-Jul-13 18:14N 52°11' W 005°52'417.3
2018-Jul-13 18:00N 52°12' W 005°58'917.7
2018-Jul-13 17:30N 52°14' W 006°12'510.0
2018-Jul-13 17:00N 52°15' W 006°20'0 0.0
2018-Jul-13 16:30N 52°15' W 006°20'0 0.0
2018-Jul-13 16:00N 52°15' W 006°20'0 0.1
2018-Jul-13 15:30N 52°15' W 006°20'611.3
2018-Jul-13 15:00N 52°14' W 006°11'917.8
2018-Jul-13 14:30N 52°11' W 005°57'19 3.4
2018-Jul-13 08:51N 52°07' W 005°27'718.1
2018-Jul-13 08:29N 52°09' W 005°38'817.4
2018-Jul-13 08:00N 52°11' W 005°51'917.3
2018-Jul-13 07:30N 52°13' W 006°04'917.3
2018-Jul-13 07:00N 52°15' W 006°18'1 2.7
2018-Jul-13 06:30N 52°15' W 006°20'0 0.0
2018-Jul-13 06:00N 52°15' W 006°20'0 0.0
2018-Jul-13 05:30N 52°15' W 006°20'0 0.0
2018-Jul-13 05:00N 52°15' W 006°20'0 0.0
2018-Jul-13 04:30N 52°15' W 006°20'0 0.0
2018-Jul-13 04:00N 52°15' W 006°20'0 0.0
2018-Jul-13 03:30N 52°15' W 006°20'0 0.0
2018-Jul-13 03:00N 52°15' W 006°20'4 8.9
2018-Jul-13 02:30N 52°14' W 006°13'816.6
2018-Jul-13 02:00N 52°12' W 006°00'816.5
2018-Jul-13 01:30N 52°10' W 005°47'6 0.9
2018-Jul-12 18:59N 52°09' W 005°37'917.1
2018-Jul-12 18:29N 52°11' W 005°51'917.2
2018-Jul-12 17:57N 52°13' W 006°06'817.1
2018-Jul-12 17:30N 52°15' W 006°18'2 3.3
2018-Jul-12 17:00N 52°15' W 006°20'0 0.0
2018-Jul-12 16:30N 52°15' W 006°20'0 0.0
2018-Jul-12 16:00N 52°15' W 006°20'0 0.4
2018-Jul-12 15:30N 52°15' W 006°20'815.6
2018-Jul-12 15:00N 52°13' W 006°08'917.7
2018-Jul-12 14:30N 52°11' W 005°54'1017.7
2018-Jul-12 13:57N 52°09' W 005°38'5 0.9
2018-Jul-12 08:24N 52°10' W 005°46'616.5
2018-Jul-12 08:00N 52°12' W 005°56'816.9
2018-Jul-12 07:30N 52°14' W 006°09'713.5
2018-Jul-12 07:00N 52°15' W 006°20'0 0.0
2018-Jul-12 06:30N 52°15' W 006°20'0 0.0
2018-Jul-12 06:00N 52°15' W 006°20'0 0.0
2018-Jul-12 05:31N 52°15' W 006°20'0 0.0
2018-Jul-12 05:00N 52°15' W 006°20'0 0.0
2018-Jul-12 04:30N 52°15' W 006°20'0 0.0
2018-Jul-12 04:00N 52°15' W 006°20'0 0.0
2018-Jul-12 03:29N 52°15' W 006°20'0 0.0
2018-Jul-12 03:01N 52°15' W 006°20'  

Dump ship's entire track history